sensor_id;sensor_type;location;lat;lon;timestamp;temperature;humidity
26954;DHT22;14508;50.924;11.600;2022-09-28T00:00:53;9.60;99.90
26954;DHT22;14508;50.924;11.600;2022-09-28T00:03:20;9.60;99.90
26954;DHT22;14508;50.924;11.600;2022-09-28T00:05:47;9.60;99.90
26954;DHT22;14508;50.924;11.600;2022-09-28T00:08:15;9.60;99.90
26954;DHT22;14508;50.924;11.600;2022-09-28T00:10:41;9.50;99.90
26954;DHT22;14508;50.924;11.600;2022-09-28T00:13:10;9.50;99.90
26954;DHT22;14508;50.924;11.600;2022-09-28T00:15:36;9.40;99.90
26954;DHT22;14508;50.924;11.600;2022-09-28T00:18:03;9.40;99.90
26954;DHT22;14508;50.924;11.600;2022-09-28T00:20:30;9.30;99.90
26954;DHT22;14508;50.924;11.600;2022-09-28T00:22:56;9.30;99.90
26954;DHT22;14508;50.924;11.600;2022-09-28T00:25:24;9.20;99.90
26954;DHT22;14508;50.924;11.600;2022-09-28T00:27:52;9.20;99.90
26954;DHT22;14508;50.924;11.600;2022-09-28T00:30:19;9.20;99.90
26954;DHT22;14508;50.924;11.600;2022-09-28T00:32:45;9.20;99.90
26954;DHT22;14508;50.924;11.600;2022-09-28T00:35:12;9.10;99.90
26954;DHT22;14508;50.924;11.600;2022-09-28T00:37:39;9.10;99.90
26954;DHT22;14508;50.924;11.600;2022-09-28T00:40:06;9.10;99.90
26954;DHT22;14508;50.924;11.600;2022-09-28T00:42:34;9.00;99.90
26954;DHT22;14508;50.924;11.600;2022-09-28T00:45:01;9.00;99.90
26954;DHT22;14508;50.924;11.600;2022-09-28T00:47:38;9.00;99.90
26954;DHT22;14508;50.924;11.600;2022-09-28T00:50:12;9.00;99.90
26954;DHT22;14508;50.924;11.600;2022-09-28T00:52:42;8.90;99.90
26954;DHT22;14508;50.924;11.600;2022-09-28T00:55:13;8.90;99.90
26954;DHT22;14508;50.924;11.600;2022-09-28T00:57:44;8.90;99.90
26954;DHT22;14508;50.924;11.600;2022-09-28T01:00:13;8.80;99.90
26954;DHT22;14508;50.924;11.600;2022-09-28T01:02:40;8.80;99.90
26954;DHT22;14508;50.924;11.600;2022-09-28T01:05:08;8.80;99.90
26954;DHT22;14508;50.924;11.600;2022-09-28T01:07:36;8.80;99.90
26954;DHT22;14508;50.924;11.600;2022-09-28T01:10:03;8.80;99.90
26954;DHT22;14508;50.924;11.600;2022-09-28T01:12:30;8.70;99.90
26954;DHT22;14508;50.924;11.600;2022-09-28T01:14:59;8.70;99.90
26954;DHT22;14508;50.924;11.600;2022-09-28T01:17:32;8.70;99.90
26954;DHT22;14508;50.924;11.600;2022-09-28T01:20:25;8.60;99.90
26954;DHT22;14508;50.924;11.600;2022-09-28T01:23:20;8.60;99.90
26954;DHT22;14508;50.924;11.600;2022-09-28T01:25:53;8.60;99.90
26954;DHT22;14508;50.924;11.600;2022-09-28T01:28:22;8.50;99.90
26954;DHT22;14508;50.924;11.600;2022-09-28T01:30:58;8.50;99.90
26954;DHT22;14508;50.924;11.600;2022-09-28T01:33:33;8.50;99.90
26954;DHT22;14508;50.924;11.600;2022-09-28T01:36:06;8.50;99.90
26954;DHT22;14508;50.924;11.600;2022-09-28T01:38:38;8.40;99.90
26954;DHT22;14508;50.924;11.600;2022-09-28T01:41:08;8.40;99.90
26954;DHT22;14508;50.924;11.600;2022-09-28T01:43:39;8.40;99.90
26954;DHT22;14508;50.924;11.600;2022-09-28T01:46:10;8.40;99.90
26954;DHT22;14508;50.924;11.600;2022-09-28T01:48:41;8.40;99.90
26954;DHT22;14508;50.924;11.600;2022-09-28T01:51:13;8.40;99.90
26954;DHT22;14508;50.924;11.600;2022-09-28T01:53:46;8.40;99.90
26954;DHT22;14508;50.924;11.600;2022-09-28T01:56:24;8.50;99.90
26954;DHT22;14508;50.924;11.600;2022-09-28T01:58:55;8.50;99.90
26954;DHT22;14508;50.924;11.600;2022-09-28T02:01:28;8.50;99.90
26954;DHT22;14508;50.924;11.600;2022-09-28T02:04:01;8.50;99.90
26954;DHT22;14508;50.924;11.600;2022-09-28T02:06:35;8.50;99.90
26954;DHT22;14508;50.924;11.600;2022-09-28T02:09:08;8.50;99.90
26954;DHT22;14508;50.924;11.600;2022-09-28T02:11:44;8.50;99.90
26954;DHT22;14508;50.924;11.600;2022-09-28T02:14:15;8.50;99.90
26954;DHT22;14508;50.924;11.600;2022-09-28T02:16:45;8.50;99.90
26954;DHT22;14508;50.924;11.600;2022-09-28T02:19:16;8.60;99.90
26954;DHT22;14508;50.924;11.600;2022-09-28T02:21:51;8.60;99.90
26954;DHT22;14508;50.924;11.600;2022-09-28T02:24:23;8.60;99.90
26954;DHT22;14508;50.924;11.600;2022-09-28T02:26:55;8.50;99.90
26954;DHT22;14508;50.924;11.600;2022-09-28T02:29:24;8.50;99.90
26954;DHT22;14508;50.924;11.600;2022-09-28T02:31:51;8.50;99.90
26954;DHT22;14508;50.924;11.600;2022-09-28T02:34:18;8.50;99.90
26954;DHT22;14508;50.924;11.600;2022-09-28T02:36:45;8.50;99.90
26954;DHT22;14508;50.924;11.600;2022-09-28T02:39:13;8.50;99.90
26954;DHT22;14508;50.924;11.600;2022-09-28T02:41:50;8.50;99.90
26954;DHT22;14508;50.924;11.600;2022-09-28T02:44:40;8.50;99.90
26954;DHT22;14508;50.924;11.600;2022-09-28T02:47:15;8.50;99.90
26954;DHT22;14508;50.924;11.600;2022-09-28T02:49:49;8.50;99.90
26954;DHT22;14508;50.924;11.600;2022-09-28T02:55:19;8.30;99.90
26954;DHT22;14508;50.924;11.600;2022-09-28T02:58:09;8.20;99.90
26954;DHT22;14508;50.924;11.600;2022-09-28T03:00:44;8.20;99.90
26954;DHT22;14508;50.924;11.600;2022-09-28T03:03:18;8.10;99.90
26954;DHT22;14508;50.924;11.600;2022-09-28T03:05:52;8.10;99.90
26954;DHT22;14508;50.924;11.600;2022-09-28T03:08:22;8.10;99.90
26954;DHT22;14508;50.924;11.600;2022-09-28T03:10:54;8.10;99.90
26954;DHT22;14508;50.924;11.600;2022-09-28T03:13:23;8.10;99.90
26954;DHT22;14508;50.924;11.600;2022-09-28T03:16:04;8.10;99.90
26954;DHT22;14508;50.924;11.600;2022-09-28T03:18:31;8.10;99.90
26954;DHT22;14508;50.924;11.600;2022-09-28T03:20:58;8.10;99.90
26954;DHT22;14508;50.924;11.600;2022-09-28T03:23:25;8.10;99.90
26954;DHT22;14508;50.924;11.600;2022-09-28T03:25:55;8.10;99.90
26954;DHT22;14508;50.924;11.600;2022-09-28T03:28:54;8.10;99.90
26954;DHT22;14508;50.924;11.600;2022-09-28T03:31:24;8.10;99.90
26954;DHT22;14508;50.924;11.600;2022-09-28T03:33:51;8.10;99.90
26954;DHT22;14508;50.924;11.600;2022-09-28T03:36:18;8.10;99.90
26954;DHT22;14508;50.924;11.600;2022-09-28T03:38:45;8.20;99.90
26954;DHT22;14508;50.924;11.600;2022-09-28T03:41:11;8.20;99.90
26954;DHT22;14508;50.924;11.600;2022-09-28T03:43:41;8.30;99.90
26954;DHT22;14508;50.924;11.600;2022-09-28T03:46:08;8.40;99.90
26954;DHT22;14508;50.924;11.600;2022-09-28T03:48:42;8.40;99.90
26954;DHT22;14508;50.924;11.600;2022-09-28T03:51:10;8.50;99.90
26954;DHT22;14508;50.924;11.600;2022-09-28T03:53:38;8.50;99.90
26954;DHT22;14508;50.924;11.600;2022-09-28T03:56:08;8.50;99.90
26954;DHT22;14508;50.924;11.600;2022-09-28T03:58:36;8.60;99.90
26954;DHT22;14508;50.924;11.600;2022-09-28T04:01:04;8.60;99.90
26954;DHT22;14508;50.924;11.600;2022-09-28T04:03:31;8.70;99.90
26954;DHT22;14508;50.924;11.600;2022-09-28T04:05:59;8.80;99.90
26954;DHT22;14508;50.924;11.600;2022-09-28T04:08:26;8.80;99.90
26954;DHT22;14508;50.924;11.600;2022-09-28T04:10:55;8.80;99.90
26954;DHT22;14508;50.924;11.600;2022-09-28T04:13:22;8.90;99.90
26954;DHT22;14508;50.924;11.600;2022-09-28T04:15:52;8.90;99.90
26954;DHT22;14508;50.924;11.600;2022-09-28T04:18:19;9.00;99.90
26954;DHT22;14508;50.924;11.600;2022-09-28T04:21:08;9.00;99.90
26954;DHT22;14508;50.924;11.600;2022-09-28T04:23:40;9.00;99.90
26954;DHT22;14508;50.924;11.600;2022-09-28T04:26:08;9.10;99.90
26954;DHT22;14508;50.924;11.600;2022-09-28T04:28:37;9.10;99.90
26954;DHT22;14508;50.924;11.600;2022-09-28T04:31:22;9.10;99.90
26954;DHT22;14508;50.924;11.600;2022-09-28T04:33:49;9.10;99.90
26954;DHT22;14508;50.924;11.600;2022-09-28T04:36:17;9.10;99.90
26954;DHT22;14508;50.924;11.600;2022-09-28T04:38:45;9.10;99.90
26954;DHT22;14508;50.924;11.600;2022-09-28T04:41:13;9.20;99.90
26954;DHT22;14508;50.924;11.600;2022-09-28T04:43:40;9.20;99.90
26954;DHT22;14508;50.924;11.600;2022-09-28T04:46:08;9.20;99.90
26954;DHT22;14508;50.924;11.600;2022-09-28T04:48:42;9.20;99.90
26954;DHT22;14508;50.924;11.600;2022-09-28T04:51:30;9.20;99.90
26954;DHT22;14508;50.924;11.600;2022-09-28T04:53:57;9.20;99.90
26954;DHT22;14508;50.924;11.600;2022-09-28T04:56:24;9.20;99.90
26954;DHT22;14508;50.924;11.600;2022-09-28T04:58:51;9.10;99.90
26954;DHT22;14508;50.924;11.600;2022-09-28T05:01:19;9.20;99.90
26954;DHT22;14508;50.924;11.600;2022-09-28T05:04:16;9.20;99.90
26954;DHT22;14508;50.924;11.600;2022-09-28T05:06:56;9.20;99.90
26954;DHT22;14508;50.924;11.600;2022-09-28T05:09:23;9.20;99.90
26954;DHT22;14508;50.924;11.600;2022-09-28T05:11:51;9.10;99.90
26954;DHT22;14508;50.924;11.600;2022-09-28T05:14:20;9.20;99.90
26954;DHT22;14508;50.924;11.600;2022-09-28T05:16:47;9.20;99.90
26954;DHT22;14508;50.924;11.600;2022-09-28T05:19:35;9.20;99.90
26954;DHT22;14508;50.924;11.600;2022-09-28T05:22:04;9.20;99.90
26954;DHT22;14508;50.924;11.600;2022-09-28T05:24:39;9.20;99.90
26954;DHT22;14508;50.924;11.600;2022-09-28T05:27:06;9.10;99.90
26954;DHT22;14508;50.924;11.600;2022-09-28T05:29:33;9.20;99.90
26954;DHT22;14508;50.924;11.600;2022-09-28T05:32:38;9.20;99.90
26954;DHT22;14508;50.924;11.600;2022-09-28T05:35:24;9.20;99.90
26954;DHT22;14508;50.924;11.600;2022-09-28T05:37:52;9.20;99.90
26954;DHT22;14508;50.924;11.600;2022-09-28T05:40:20;9.20;99.90
26954;DHT22;14508;50.924;11.600;2022-09-28T05:42:47;9.20;99.90
26954;DHT22;14508;50.924;11.600;2022-09-28T05:45:14;9.10;99.90
26954;DHT22;14508;50.924;11.600;2022-09-28T05:47:43;9.10;99.90
26954;DHT22;14508;50.924;11.600;2022-09-28T05:50:12;9.00;99.90
26954;DHT22;14508;50.924;11.600;2022-09-28T05:52:41;9.00;99.90
26954;DHT22;14508;50.924;11.600;2022-09-28T05:55:10;8.90;99.90
26954;DHT22;14508;50.924;11.600;2022-09-28T05:57:37;8.90;99.90
26954;DHT22;14508;50.924;11.600;2022-09-28T06:00:05;8.90;99.90
26954;DHT22;14508;50.924;11.600;2022-09-28T06:02:38;9.00;99.90
26954;DHT22;14508;50.924;11.600;2022-09-28T06:05:06;9.00;99.90
26954;DHT22;14508;50.924;11.600;2022-09-28T06:07:33;9.10;99.90
26954;DHT22;14508;50.924;11.600;2022-09-28T06:10:00;9.10;99.90
26954;DHT22;14508;50.924;11.600;2022-09-28T06:12:50;9.10;99.90
26954;DHT22;14508;50.924;11.600;2022-09-28T06:15:19;9.10;99.90
26954;DHT22;14508;50.924;11.600;2022-09-28T06:17:46;9.10;99.90
26954;DHT22;14508;50.924;11.600;2022-09-28T06:20:44;9.10;99.90
26954;DHT22;14508;50.924;11.600;2022-09-28T06:23:13;9.10;99.90
26954;DHT22;14508;50.924;11.600;2022-09-28T06:25:40;9.10;99.90
26954;DHT22;14508;50.924;11.600;2022-09-28T06:28:10;9.10;99.90
26954;DHT22;14508;50.924;11.600;2022-09-28T06:30:39;9.10;99.90
26954;DHT22;14508;50.924;11.600;2022-09-28T06:33:10;9.00;99.90
26954;DHT22;14508;50.924;11.600;2022-09-28T06:35:37;9.00;99.90
26954;DHT22;14508;50.924;11.600;2022-09-28T06:38:04;9.00;99.90
26954;DHT22;14508;50.924;11.600;2022-09-28T06:40:32;9.10;99.90
26954;DHT22;14508;50.924;11.600;2022-09-28T06:43:00;9.10;99.90
26954;DHT22;14508;50.924;11.600;2022-09-28T06:45:55;9.10;99.90
26954;DHT22;14508;50.924;11.600;2022-09-28T06:48:40;9.10;99.90
26954;DHT22;14508;50.924;11.600;2022-09-28T06:51:12;9.10;99.90
26954;DHT22;14508;50.924;11.600;2022-09-28T06:53:56;9.20;99.90
26954;DHT22;14508;50.924;11.600;2022-09-28T06:56:49;9.20;99.90
26954;DHT22;14508;50.924;11.600;2022-09-28T06:59:18;9.20;99.90
26954;DHT22;14508;50.924;11.600;2022-09-28T07:01:46;9.30;99.90
26954;DHT22;14508;50.924;11.600;2022-09-28T07:04:19;9.30;99.90
26954;DHT22;14508;50.924;11.600;2022-09-28T07:07:06;9.30;99.90
26954;DHT22;14508;50.924;11.600;2022-09-28T07:09:56;9.40;99.90
26954;DHT22;14508;50.924;11.600;2022-09-28T07:12:34;9.30;99.90
26954;DHT22;14508;50.924;11.600;2022-09-28T07:15:03;9.30;99.90
26954;DHT22;14508;50.924;11.600;2022-09-28T07:17:32;9.30;99.90
26954;DHT22;14508;50.924;11.600;2022-09-28T07:20:01;9.40;99.90
26954;DHT22;14508;50.924;11.600;2022-09-28T07:22:29;9.40;99.90
26954;DHT22;14508;50.924;11.600;2022-09-28T07:24:56;9.40;99.90
26954;DHT22;14508;50.924;11.600;2022-09-28T07:27:41;9.40;99.90
26954;DHT22;14508;50.924;11.600;2022-09-28T07:30:14;9.40;99.90
26954;DHT22;14508;50.924;11.600;2022-09-28T07:32:58;9.50;99.90
26954;DHT22;14508;50.924;11.600;2022-09-28T07:35:34;9.50;99.90
26954;DHT22;14508;50.924;11.600;2022-09-28T07:38:04;9.50;99.90
26954;DHT22;14508;50.924;11.600;2022-09-28T07:40:32;9.50;99.90
26954;DHT22;14508;50.924;11.600;2022-09-28T07:43:16;9.60;99.90
26954;DHT22;14508;50.924;11.600;2022-09-28T07:45:46;9.60;99.90
26954;DHT22;14508;50.924;11.600;2022-09-28T07:48:15;9.60;99.90
26954;DHT22;14508;50.924;11.600;2022-09-28T08:06:15;9.60;99.90
26954;DHT22;14508;50.924;11.600;2022-09-28T08:08:43;9.90;99.90
26954;DHT22;14508;50.924;11.600;2022-09-28T08:11:13;10.00;99.90
26954;DHT22;14508;50.924;11.600;2022-09-28T08:13:52;10.10;99.90
26954;DHT22;14508;50.924;11.600;2022-09-28T08:16:53;10.20;99.90
26954;DHT22;14508;50.924;11.600;2022-09-28T08:19:42;10.20;99.90
26954;DHT22;14508;50.924;11.600;2022-09-28T08:22:28;10.40;99.90
26954;DHT22;14508;50.924;11.600;2022-09-28T08:24:56;10.40;99.90
26954;DHT22;14508;50.924;11.600;2022-09-28T08:27:23;10.30;99.90
26954;DHT22;14508;50.924;11.600;2022-09-28T08:29:50;10.30;99.90
26954;DHT22;14508;50.924;11.600;2022-09-28T08:32:37;10.30;99.90
26954;DHT22;14508;50.924;11.600;2022-09-28T08:35:25;10.30;99.90
26954;DHT22;14508;50.924;11.600;2022-09-28T08:38:28;10.20;99.90
26954;DHT22;14508;50.924;11.600;2022-09-28T08:41:17;10.20;99.90
26954;DHT22;14508;50.924;11.600;2022-09-28T08:44:16;10.20;99.90
26954;DHT22;14508;50.924;11.600;2022-09-28T08:47:16;10.20;99.90
26954;DHT22;14508;50.924;11.600;2022-09-28T08:50:17;10.30;99.90
26954;DHT22;14508;50.924;11.600;2022-09-28T08:53:04;10.50;99.90
26954;DHT22;14508;50.924;11.600;2022-09-28T08:56:09;10.70;99.90
26954;DHT22;14508;50.924;11.600;2022-09-28T08:58:40;10.90;99.90
26954;DHT22;14508;50.924;11.600;2022-09-28T09:01:13;11.00;99.90
26954;DHT22;14508;50.924;11.600;2022-09-28T09:03:42;11.20;99.90
26954;DHT22;14508;50.924;11.600;2022-09-28T09:06:35;11.30;99.90
26954;DHT22;14508;50.924;11.600;2022-09-28T09:09:36;11.40;99.90
26954;DHT22;14508;50.924;11.600;2022-09-28T09:12:11;11.50;99.90
26954;DHT22;14508;50.924;11.600;2022-09-28T09:15:11;11.50;99.90
26954;DHT22;14508;50.924;11.600;2022-09-28T09:17:51;11.50;99.90
26954;DHT22;14508;50.924;11.600;2022-09-28T09:20:33;11.50;99.90
26954;DHT22;14508;50.924;11.600;2022-09-28T09:23:21;11.50;99.90
26954;DHT22;14508;50.924;11.600;2022-09-28T09:25:50;11.60;99.90
26954;DHT22;14508;50.924;11.600;2022-09-28T09:28:38;11.60;99.90
26954;DHT22;14508;50.924;11.600;2022-09-28T09:31:18;11.70;99.90
26954;DHT22;14508;50.924;11.600;2022-09-28T09:34:10;11.70;99.90
26954;DHT22;14508;50.924;11.600;2022-09-28T09:36:58;11.80;99.90
26954;DHT22;14508;50.924;11.600;2022-09-28T09:40:00;11.80;99.90
26954;DHT22;14508;50.924;11.600;2022-09-28T09:42:55;11.70;99.90
26954;DHT22;14508;50.924;11.600;2022-09-28T09:45:58;11.70;99.90
26954;DHT22;14508;50.924;11.600;2022-09-28T09:48:54;11.80;99.90
26954;DHT22;14508;50.924;11.600;2022-09-28T09:51:34;11.80;99.90
26954;DHT22;14508;50.924;11.600;2022-09-28T09:54:08;11.70;99.90
26954;DHT22;14508;50.924;11.600;2022-09-28T09:56:40;11.80;99.90
26954;DHT22;14508;50.924;11.600;2022-09-28T09:59:18;12.00;99.90
26954;DHT22;14508;50.924;11.600;2022-09-28T10:02:21;12.10;99.90
26954;DHT22;14508;50.924;11.600;2022-09-28T10:04:57;12.10;99.90
26954;DHT22;14508;50.924;11.600;2022-09-28T10:07:36;12.00;99.90
26954;DHT22;14508;50.924;11.600;2022-09-28T10:10:11;11.90;99.90
26954;DHT22;14508;50.924;11.600;2022-09-28T10:12:45;11.80;99.90
26954;DHT22;14508;50.924;11.600;2022-09-28T10:15:21;11.80;99.90
26954;DHT22;14508;50.924;11.600;2022-09-28T10:18:08;11.80;99.90
26954;DHT22;14508;50.924;11.600;2022-09-28T10:20:43;11.90;99.90
26954;DHT22;14508;50.924;11.600;2022-09-28T10:23:21;11.70;99.90
26954;DHT22;14508;50.924;11.600;2022-09-28T10:25:51;11.60;99.90
26954;DHT22;14508;50.924;11.600;2022-09-28T10:28:24;11.50;99.90
26954;DHT22;14508;50.924;11.600;2022-09-28T10:30:53;11.30;99.90
26954;DHT22;14508;50.924;11.600;2022-09-28T10:33:29;11.20;99.90
26954;DHT22;14508;50.924;11.600;2022-09-28T10:35:57;11.20;99.90
26954;DHT22;14508;50.924;11.600;2022-09-28T10:38:24;11.40;99.90
26954;DHT22;14508;50.924;11.600;2022-09-28T10:40:57;11.70;99.90
26954;DHT22;14508;50.924;11.600;2022-09-28T10:43:51;11.80;99.90
26954;DHT22;14508;50.924;11.600;2022-09-28T10:46:31;11.80;99.90
26954;DHT22;14508;50.924;11.600;2022-09-28T10:49:03;11.60;99.90
26954;DHT22;14508;50.924;11.600;2022-09-28T10:51:39;11.50;99.90
26954;DHT22;14508;50.924;11.600;2022-09-28T10:54:14;11.50;99.90
26954;DHT22;14508;50.924;11.600;2022-09-28T10:56:47;11.70;99.90
26954;DHT22;14508;50.924;11.600;2022-09-28T10:59:37;11.70;99.90
26954;DHT22;14508;50.924;11.600;2022-09-28T11:02:24;11.80;99.90
26954;DHT22;14508;50.924;11.600;2022-09-28T11:04:58;11.80;99.90
26954;DHT22;14508;50.924;11.600;2022-09-28T11:07:32;11.80;99.90
26954;DHT22;14508;50.924;11.600;2022-09-28T11:10:01;11.70;99.90
26954;DHT22;14508;50.924;11.600;2022-09-28T11:12:35;11.70;99.90
26954;DHT22;14508;50.924;11.600;2022-09-28T11:15:04;11.80;99.90
26954;DHT22;14508;50.924;11.600;2022-09-28T11:17:33;11.80;99.90
26954;DHT22;14508;50.924;11.600;2022-09-28T11:20:24;11.80;99.90
26954;DHT22;14508;50.924;11.600;2022-09-28T11:22:57;11.60;99.90
26954;DHT22;14508;50.924;11.600;2022-09-28T11:25:29;11.60;99.90
26954;DHT22;14508;50.924;11.600;2022-09-28T11:27:58;11.80;99.90
26954;DHT22;14508;50.924;11.600;2022-09-28T11:30:27;12.10;99.90
26954;DHT22;14508;50.924;11.600;2022-09-28T11:33:17;12.50;99.90
26954;DHT22;14508;50.924;11.600;2022-09-28T11:36:29;12.80;99.90
26954;DHT22;14508;50.924;11.600;2022-09-28T11:39:05;13.20;99.90
26954;DHT22;14508;50.924;11.600;2022-09-28T11:41:56;13.40;98.00
26954;DHT22;14508;50.924;11.600;2022-09-28T11:44:41;13.30;92.10
26954;DHT22;14508;50.924;11.600;2022-09-28T11:50:21;12.80;85.90
26954;DHT22;14508;50.924;11.600;2022-09-28T11:52:55;12.50;87.90
26954;DHT22;14508;50.924;11.600;2022-09-28T11:55:26;12.40;88.80
26954;DHT22;14508;50.924;11.600;2022-09-28T11:58:02;12.10;88.70
26954;DHT22;14508;50.924;11.600;2022-09-28T12:00:37;12.10;91.00
26954;DHT22;14508;50.924;11.600;2022-09-28T12:03:10;12.00;91.40
26954;DHT22;14508;50.924;11.600;2022-09-28T12:05:41;12.00;91.30
26954;DHT22;14508;50.924;11.600;2022-09-28T12:08:15;12.10;91.30
26954;DHT22;14508;50.924;11.600;2022-09-28T12:11:07;12.20;91.90
26954;DHT22;14508;50.924;11.600;2022-09-28T12:14:09;12.30;92.60
26954;DHT22;14508;50.924;11.600;2022-09-28T12:16:43;12.50;92.80
26954;DHT22;14508;50.924;11.600;2022-09-28T12:19:15;12.70;91.70
26954;DHT22;14508;50.924;11.600;2022-09-28T12:21:47;12.80;91.80
26954;DHT22;14508;50.924;11.600;2022-09-28T12:24:20;12.80;90.90
26954;DHT22;14508;50.924;11.600;2022-09-28T12:26:52;12.90;90.20
26954;DHT22;14508;50.924;11.600;2022-09-28T12:29:26;12.90;91.10
26954;DHT22;14508;50.924;11.600;2022-09-28T12:32:00;13.00;88.90
26954;DHT22;14508;50.924;11.600;2022-09-28T12:34:30;13.00;89.70
26954;DHT22;14508;50.924;11.600;2022-09-28T12:37:27;13.10;90.70
26954;DHT22;14508;50.924;11.600;2022-09-28T12:40:28;13.10;88.20
26954;DHT22;14508;50.924;11.600;2022-09-28T12:43:11;13.10;89.50
26954;DHT22;14508;50.924;11.600;2022-09-28T12:45:56;13.10;90.30
26954;DHT22;14508;50.924;11.600;2022-09-28T12:48:39;13.10;88.30
26954;DHT22;14508;50.924;11.600;2022-09-28T12:51:14;13.30;89.20
26954;DHT22;14508;50.924;11.600;2022-09-28T12:54:05;13.50;88.80
26954;DHT22;14508;50.924;11.600;2022-09-28T12:56:51;13.80;83.70
26954;DHT22;14508;50.924;11.600;2022-09-28T12:59:26;13.90;83.50
26954;DHT22;14508;50.924;11.600;2022-09-28T13:02:19;13.80;81.50
26954;DHT22;14508;50.924;11.600;2022-09-28T13:05:14;13.90;81.80
26954;DHT22;14508;50.924;11.600;2022-09-28T13:07:49;14.10;79.70
26954;DHT22;14508;50.924;11.600;2022-09-28T13:10:25;14.10;76.30
26954;DHT22;14508;50.924;11.600;2022-09-28T13:13:17;14.20;76.80
26954;DHT22;14508;50.924;11.600;2022-09-28T13:15:51;14.10;76.90
26954;DHT22;14508;50.924;11.600;2022-09-28T13:18:23;14.10;75.00
26954;DHT22;14508;50.924;11.600;2022-09-28T13:21:07;14.10;75.40
26954;DHT22;14508;50.924;11.600;2022-09-28T13:23:39;13.90;74.70
26954;DHT22;14508;50.924;11.600;2022-09-28T13:26:12;13.70;74.10
26954;DHT22;14508;50.924;11.600;2022-09-28T13:28:42;13.40;75.80
26954;DHT22;14508;50.924;11.600;2022-09-28T13:31:11;13.10;76.90
26954;DHT22;14508;50.924;11.600;2022-09-28T13:33:44;12.90;80.50
26954;DHT22;14508;50.924;11.600;2022-09-28T13:36:37;12.70;86.00
26954;DHT22;14508;50.924;11.600;2022-09-28T13:39:34;12.60;90.00
26954;DHT22;14508;50.924;11.600;2022-09-28T13:42:02;12.60;91.00
26954;DHT22;14508;50.924;11.600;2022-09-28T13:44:46;12.70;91.40
26954;DHT22;14508;50.924;11.600;2022-09-28T13:47:31;12.80;89.20
26954;DHT22;14508;50.924;11.600;2022-09-28T13:50:17;12.90;85.00
26954;DHT22;14508;50.924;11.600;2022-09-28T13:52:50;13.00;82.50
26954;DHT22;14508;50.924;11.600;2022-09-28T13:55:23;13.00;83.00
26954;DHT22;14508;50.924;11.600;2022-09-28T13:57:54;13.20;83.80
26954;DHT22;14508;50.924;11.600;2022-09-28T14:00:27;13.40;82.10
26954;DHT22;14508;50.924;11.600;2022-09-28T14:02:58;13.50;80.80
26954;DHT22;14508;50.924;11.600;2022-09-28T14:08:30;13.60;78.20
26954;DHT22;14508;50.924;11.600;2022-09-28T14:11:29;13.70;77.80
26954;DHT22;14508;50.924;11.600;2022-09-28T14:14:23;13.70;77.70
26954;DHT22;14508;50.924;11.600;2022-09-28T14:17:03;13.80;78.40
26954;DHT22;14508;50.924;11.600;2022-09-28T14:19:50;13.80;77.40
26954;DHT22;14508;50.924;11.600;2022-09-28T14:22:22;13.70;73.40
26954;DHT22;14508;50.924;11.600;2022-09-28T14:25:05;13.60;74.00
26954;DHT22;14508;50.924;11.600;2022-09-28T14:27:42;13.50;73.50
26954;DHT22;14508;50.924;11.600;2022-09-28T14:30:19;13.50;74.70
26954;DHT22;14508;50.924;11.600;2022-09-28T14:32:54;13.40;75.10
26954;DHT22;14508;50.924;11.600;2022-09-28T14:35:30;13.40;75.30
26954;DHT22;14508;50.924;11.600;2022-09-28T14:38:01;13.40;76.10
26954;DHT22;14508;50.924;11.600;2022-09-28T14:40:59;13.40;76.80
26954;DHT22;14508;50.924;11.600;2022-09-28T14:43:36;13.30;77.60
26954;DHT22;14508;50.924;11.600;2022-09-28T14:49:43;13.00;79.80
26954;DHT22;14508;50.924;11.600;2022-09-28T14:52:16;12.90;81.90
26954;DHT22;14508;50.924;11.600;2022-09-28T14:54:50;12.70;82.70
26954;DHT22;14508;50.924;11.600;2022-09-28T14:57:21;12.70;84.80
26954;DHT22;14508;50.924;11.600;2022-09-28T14:59:48;12.60;86.40
26954;DHT22;14508;50.924;11.600;2022-09-28T15:02:23;12.60;87.40
26954;DHT22;14508;50.924;11.600;2022-09-28T15:04:53;12.60;88.60
26954;DHT22;14508;50.924;11.600;2022-09-28T15:07:24;12.60;88.40
26954;DHT22;14508;50.924;11.600;2022-09-28T15:09:52;12.50;88.50
26954;DHT22;14508;50.924;11.600;2022-09-28T15:12:21;12.50;89.20
26954;DHT22;14508;50.924;11.600;2022-09-28T15:14:52;12.30;89.20
26954;DHT22;14508;50.924;11.600;2022-09-28T15:17:22;12.30;90.00
26954;DHT22;14508;50.924;11.600;2022-09-28T15:20:05;12.30;90.60
26954;DHT22;14508;50.924;11.600;2022-09-28T15:22:35;12.40;91.00
26954;DHT22;14508;50.924;11.600;2022-09-28T15:25:07;12.40;91.00
26954;DHT22;14508;50.924;11.600;2022-09-28T15:27:38;12.50;91.30
26954;DHT22;14508;50.924;11.600;2022-09-28T15:30:17;12.60;91.30
26954;DHT22;14508;50.924;11.600;2022-09-28T15:32:46;12.60;91.20
26954;DHT22;14508;50.924;11.600;2022-09-28T15:35:17;12.70;90.90
26954;DHT22;14508;50.924;11.600;2022-09-28T15:37:46;12.70;89.90
26954;DHT22;14508;50.924;11.600;2022-09-28T15:40:17;12.60;90.50
26954;DHT22;14508;50.924;11.600;2022-09-28T15:42:45;12.60;91.20
26954;DHT22;14508;50.924;11.600;2022-09-28T15:45:21;12.50;90.40
26954;DHT22;14508;50.924;11.600;2022-09-28T15:47:53;12.30;90.80
26954;DHT22;14508;50.924;11.600;2022-09-28T15:50:25;12.10;91.50
26954;DHT22;14508;50.924;11.600;2022-09-28T15:52:57;12.10;92.40
26954;DHT22;14508;50.924;11.600;2022-09-28T15:55:28;12.10;93.10
26954;DHT22;14508;50.924;11.600;2022-09-28T15:58:05;12.20;93.20
26954;DHT22;14508;50.924;11.600;2022-09-28T16:00:32;12.30;93.20
26954;DHT22;14508;50.924;11.600;2022-09-28T16:03:01;12.40;93.20
26954;DHT22;14508;50.924;11.600;2022-09-28T16:05:32;12.40;93.50
26954;DHT22;14508;50.924;11.600;2022-09-28T16:08:03;12.40;93.80
26954;DHT22;14508;50.924;11.600;2022-09-28T16:10:31;12.40;93.80
26954;DHT22;14508;50.924;11.600;2022-09-28T16:13:09;12.30;94.00
26954;DHT22;14508;50.924;11.600;2022-09-28T16:15:38;12.30;94.50
26954;DHT22;14508;50.924;11.600;2022-09-28T16:18:15;12.20;95.10
26954;DHT22;14508;50.924;11.600;2022-09-28T16:20:45;12.10;95.60
26954;DHT22;14508;50.924;11.600;2022-09-28T16:23:21;12.00;96.00
26954;DHT22;14508;50.924;11.600;2022-09-28T16:25:51;12.00;96.90
26954;DHT22;14508;50.924;11.600;2022-09-28T16:31:26;11.80;96.40
26954;DHT22;14508;50.924;11.600;2022-09-28T16:33:55;11.70;95.70
26954;DHT22;14508;50.924;11.600;2022-09-28T16:36:25;11.70;95.40
26954;DHT22;14508;50.924;11.600;2022-09-28T16:38:55;11.60;96.10
26954;DHT22;14508;50.924;11.600;2022-09-28T16:41:23;11.60;97.20
26954;DHT22;14508;50.924;11.600;2022-09-28T16:43:55;11.60;98.00